Terminal Aerodrome Forecast
Issued by NWS Cleveland, OH

Home | Current Version | Previous Version | Graphics & Text | Print | Product List | Glossary On
Versions: 1 2 3 4 5 6 7 8 9 10 11 12 13 14 15 16 17 18 19 20 21 22 23 24 25
000
FTUS41 KCLE 232300
TAFCAK
TAF
KCAK 232339Z 2400/2424 VRB03KT P6SM BKN130
      TEMPO 2407/2411 5SM BR BKN015 OVC130
     FM241100 26008KT P6SM SCT025 BKN035
     FM241900 26010KT 6SM -DZ BR OVC015=

USA.gov is the U.S. government's official web portal to all federal, state and local government web resources and services.